sensor_id;sensor_type;location;lat;lon;timestamp;temperature;humidity
48994;DHT22;34804;49.214;12.276;2022-10-26T00:01:10;7.80;93.60
48994;DHT22;34804;49.214;12.276;2022-10-26T00:03:39;7.80;93.70
48994;DHT22;34804;49.214;12.276;2022-10-26T00:06:11;7.80;93.70
48994;DHT22;34804;49.214;12.276;2022-10-26T00:08:38;7.80;93.80
48994;DHT22;34804;49.214;12.276;2022-10-26T00:11:05;7.80;93.90
48994;DHT22;34804;49.214;12.276;2022-10-26T00:13:33;7.80;93.90
48994;DHT22;34804;49.214;12.276;2022-10-26T00:16:00;7.70;94.00
48994;DHT22;34804;49.214;12.276;2022-10-26T00:18:27;7.80;94.20
48994;DHT22;34804;49.214;12.276;2022-10-26T00:20:54;7.80;94.30
48994;DHT22;34804;49.214;12.276;2022-10-26T00:23:21;7.80;94.20
48994;DHT22;34804;49.214;12.276;2022-10-26T00:25:54;7.90;94.20
48994;DHT22;34804;49.214;12.276;2022-10-26T00:28:21;7.80;94.10
48994;DHT22;34804;49.214;12.276;2022-10-26T00:30:48;7.80;94.10
48994;DHT22;34804;49.214;12.276;2022-10-26T00:33:15;7.70;93.80
48994;DHT22;34804;49.214;12.276;2022-10-26T00:35:46;7.70;94.30
48994;DHT22;34804;49.214;12.276;2022-10-26T00:38:13;7.70;94.00
48994;DHT22;34804;49.214;12.276;2022-10-26T00:40:39;7.80;94.30
48994;DHT22;34804;49.214;12.276;2022-10-26T00:43:35;7.80;94.30
48994;DHT22;34804;49.214;12.276;2022-10-26T00:46:00;7.80;94.00
48994;DHT22;34804;49.214;12.276;2022-10-26T00:48:31;7.80;93.80
48994;DHT22;34804;49.214;12.276;2022-10-26T00:51:02;7.70;93.80
48994;DHT22;34804;49.214;12.276;2022-10-26T00:53:31;7.70;94.10
48994;DHT22;34804;49.214;12.276;2022-10-26T00:56:00;7.70;93.90
48994;DHT22;34804;49.214;12.276;2022-10-26T00:58:27;7.70;94.10
48994;DHT22;34804;49.214;12.276;2022-10-26T01:00:54;7.70;94.10
48994;DHT22;34804;49.214;12.276;2022-10-26T01:03:21;7.70;94.20
48994;DHT22;34804;49.214;12.276;2022-10-26T01:05:54;7.70;93.90
48994;DHT22;34804;49.214;12.276;2022-10-26T01:08:22;7.70;94.00
48994;DHT22;34804;49.214;12.276;2022-10-26T01:10:49;7.70;93.90
48994;DHT22;34804;49.214;12.276;2022-10-26T01:13:17;7.70;93.80
48994;DHT22;34804;49.214;12.276;2022-10-26T01:16:05;7.70;93.70
48994;DHT22;34804;49.214;12.276;2022-10-26T01:18:41;7.60;93.70
48994;DHT22;34804;49.214;12.276;2022-10-26T01:21:43;7.60;93.60
48994;DHT22;34804;49.214;12.276;2022-10-26T01:32:22;7.40;93.80
48994;DHT22;34804;49.214;12.276;2022-10-26T01:34:54;7.40;93.80
48994;DHT22;34804;49.214;12.276;2022-10-26T01:37:27;7.40;93.80
48994;DHT22;34804;49.214;12.276;2022-10-26T01:40:28;7.50;94.10
48994;DHT22;34804;49.214;12.276;2022-10-26T01:42:58;7.50;94.10
48994;DHT22;34804;49.214;12.276;2022-10-26T01:45:29;7.50;93.90
48994;DHT22;34804;49.214;12.276;2022-10-26T01:47:58;7.60;93.80
48994;DHT22;34804;49.214;12.276;2022-10-26T01:50:28;7.50;93.80
48994;DHT22;34804;49.214;12.276;2022-10-26T01:52:55;7.60;94.00
48994;DHT22;34804;49.214;12.276;2022-10-26T02:03:44;7.80;93.90
48994;DHT22;34804;49.214;12.276;2022-10-26T02:17:06;7.90;93.80
48994;DHT22;34804;49.214;12.276;2022-10-26T02:22:21;7.90;93.70
48994;DHT22;34804;49.214;12.276;2022-10-26T02:24:51;7.90;93.60
48994;DHT22;34804;49.214;12.276;2022-10-26T02:27:25;7.90;93.60
48994;DHT22;34804;49.214;12.276;2022-10-26T02:29:54;7.90;93.40
48994;DHT22;34804;49.214;12.276;2022-10-26T02:32:25;7.90;93.30
48994;DHT22;34804;49.214;12.276;2022-10-26T02:34:55;7.80;93.20
48994;DHT22;34804;49.214;12.276;2022-10-26T02:37:24;7.90;93.50
48994;DHT22;34804;49.214;12.276;2022-10-26T02:39:54;7.90;93.60
48994;DHT22;34804;49.214;12.276;2022-10-26T02:42:23;7.90;93.60
48994;DHT22;34804;49.214;12.276;2022-10-26T02:44:55;8.00;93.70
48994;DHT22;34804;49.214;12.276;2022-10-26T02:47:25;8.00;93.40
48994;DHT22;34804;49.214;12.276;2022-10-26T02:49:53;8.10;93.60
48994;DHT22;34804;49.214;12.276;2022-10-26T02:55:08;7.90;93.20
48994;DHT22;34804;49.214;12.276;2022-10-26T02:57:38;7.90;93.20
48994;DHT22;34804;49.214;12.276;2022-10-26T03:00:12;7.90;93.70
48994;DHT22;34804;49.214;12.276;2022-10-26T03:02:42;7.80;94.00
48994;DHT22;34804;49.214;12.276;2022-10-26T03:05:15;7.80;93.90
48994;DHT22;34804;49.214;12.276;2022-10-26T03:07:45;7.80;93.80
48994;DHT22;34804;49.214;12.276;2022-10-26T03:10:11;7.80;93.90
48994;DHT22;34804;49.214;12.276;2022-10-26T03:12:38;7.90;94.20
48994;DHT22;34804;49.214;12.276;2022-10-26T03:15:05;7.90;94.10
48994;DHT22;34804;49.214;12.276;2022-10-26T03:17:32;7.90;94.00
48994;DHT22;34804;49.214;12.276;2022-10-26T03:19:59;7.90;93.90
48994;DHT22;34804;49.214;12.276;2022-10-26T03:22:26;7.90;93.90
48994;DHT22;34804;49.214;12.276;2022-10-26T03:24:53;7.90;93.90
48994;DHT22;34804;49.214;12.276;2022-10-26T03:27:19;7.90;93.80
48994;DHT22;34804;49.214;12.276;2022-10-26T03:29:46;7.90;94.10
48994;DHT22;34804;49.214;12.276;2022-10-26T03:32:13;7.80;94.40
48994;DHT22;34804;49.214;12.276;2022-10-26T03:34:40;7.80;94.40
48994;DHT22;34804;49.214;12.276;2022-10-26T03:37:07;7.80;94.40
48994;DHT22;34804;49.214;12.276;2022-10-26T03:39:34;7.80;94.40
48994;DHT22;34804;49.214;12.276;2022-10-26T03:42:00;7.80;94.40
48994;DHT22;34804;49.214;12.276;2022-10-26T03:44:27;7.80;94.50
48994;DHT22;34804;49.214;12.276;2022-10-26T03:46:54;7.80;94.50
48994;DHT22;34804;49.214;12.276;2022-10-26T03:49:21;7.80;94.70
48994;DHT22;34804;49.214;12.276;2022-10-26T03:51:48;7.90;94.70
48994;DHT22;34804;49.214;12.276;2022-10-26T03:54:15;7.90;94.90
48994;DHT22;34804;49.214;12.276;2022-10-26T03:56:41;8.00;94.90
48994;DHT22;34804;49.214;12.276;2022-10-26T03:59:08;8.10;94.80
48994;DHT22;34804;49.214;12.276;2022-10-26T04:01:35;8.10;94.70
48994;DHT22;34804;49.214;12.276;2022-10-26T04:04:02;8.10;94.80
48994;DHT22;34804;49.214;12.276;2022-10-26T04:06:28;8.20;94.70
48994;DHT22;34804;49.214;12.276;2022-10-26T04:08:55;8.20;94.70
48994;DHT22;34804;49.214;12.276;2022-10-26T04:11:28;8.30;94.80
48994;DHT22;34804;49.214;12.276;2022-10-26T04:13:55;8.40;94.80
48994;DHT22;34804;49.214;12.276;2022-10-26T04:16:25;8.40;94.70
48994;DHT22;34804;49.214;12.276;2022-10-26T04:18:59;8.40;94.30
48994;DHT22;34804;49.214;12.276;2022-10-26T04:21:26;8.40;94.40
48994;DHT22;34804;49.214;12.276;2022-10-26T04:23:52;8.40;94.20
48994;DHT22;34804;49.214;12.276;2022-10-26T04:26:19;8.40;94.20
48994;DHT22;34804;49.214;12.276;2022-10-26T04:28:46;8.40;94.20
48994;DHT22;34804;49.214;12.276;2022-10-26T04:31:13;8.40;94.20
48994;DHT22;34804;49.214;12.276;2022-10-26T04:33:39;8.40;94.30
48994;DHT22;34804;49.214;12.276;2022-10-26T04:36:07;8.40;94.20
48994;DHT22;34804;49.214;12.276;2022-10-26T04:38:33;8.40;94.20
48994;DHT22;34804;49.214;12.276;2022-10-26T04:41:00;8.50;94.40
48994;DHT22;34804;49.214;12.276;2022-10-26T04:43:27;8.50;94.50
48994;DHT22;34804;49.214;12.276;2022-10-26T04:45:55;8.60;94.60
48994;DHT22;34804;49.214;12.276;2022-10-26T04:48:23;8.60;94.40
48994;DHT22;34804;49.214;12.276;2022-10-26T04:50:50;8.60;94.30
48994;DHT22;34804;49.214;12.276;2022-10-26T04:53:17;8.60;94.30
48994;DHT22;34804;49.214;12.276;2022-10-26T04:55:44;8.60;94.20
48994;DHT22;34804;49.214;12.276;2022-10-26T04:58:11;8.60;94.30
48994;DHT22;34804;49.214;12.276;2022-10-26T05:00:38;8.70;94.00
48994;DHT22;34804;49.214;12.276;2022-10-26T05:03:06;8.60;94.00
48994;DHT22;34804;49.214;12.276;2022-10-26T05:05:34;8.70;94.30
48994;DHT22;34804;49.214;12.276;2022-10-26T05:08:02;8.70;94.40
48994;DHT22;34804;49.214;12.276;2022-10-26T05:10:29;8.70;94.10
48994;DHT22;34804;49.214;12.276;2022-10-26T05:12:58;8.70;94.20
48994;DHT22;34804;49.214;12.276;2022-10-26T05:15:26;8.80;94.40
48994;DHT22;34804;49.214;12.276;2022-10-26T05:17:55;8.80;94.20
48994;DHT22;34804;49.214;12.276;2022-10-26T05:20:23;8.70;94.00
48994;DHT22;34804;49.214;12.276;2022-10-26T05:22:56;8.80;94.30
48994;DHT22;34804;49.214;12.276;2022-10-26T05:25:24;8.80;94.30
48994;DHT22;34804;49.214;12.276;2022-10-26T05:27:51;8.80;94.10
48994;DHT22;34804;49.214;12.276;2022-10-26T05:30:18;8.80;94.10
48994;DHT22;34804;49.214;12.276;2022-10-26T05:32:55;8.80;94.10
48994;DHT22;34804;49.214;12.276;2022-10-26T05:35:23;8.70;94.20
48994;DHT22;34804;49.214;12.276;2022-10-26T05:37:52;8.70;94.40
48994;DHT22;34804;49.214;12.276;2022-10-26T05:40:19;8.70;94.40
48994;DHT22;34804;49.214;12.276;2022-10-26T05:42:46;8.80;94.50
48994;DHT22;34804;49.214;12.276;2022-10-26T05:45:13;8.80;94.50
48994;DHT22;34804;49.214;12.276;2022-10-26T05:47:41;8.80;94.50
48994;DHT22;34804;49.214;12.276;2022-10-26T05:50:09;8.80;94.70
48994;DHT22;34804;49.214;12.276;2022-10-26T05:52:40;8.80;94.70
48994;DHT22;34804;49.214;12.276;2022-10-26T05:55:09;8.80;94.70
48994;DHT22;34804;49.214;12.276;2022-10-26T05:57:36;8.80;94.80
48994;DHT22;34804;49.214;12.276;2022-10-26T06:00:06;8.70;94.70
48994;DHT22;34804;49.214;12.276;2022-10-26T06:03:13;8.80;95.10
48994;DHT22;34804;49.214;12.276;2022-10-26T06:08:11;8.80;94.90
48994;DHT22;34804;49.214;12.276;2022-10-26T06:10:38;8.80;94.90
48994;DHT22;34804;49.214;12.276;2022-10-26T06:13:05;8.80;94.90
48994;DHT22;34804;49.214;12.276;2022-10-26T06:27:11;8.90;95.20
48994;DHT22;34804;49.214;12.276;2022-10-26T06:32:23;9.00;95.10
48994;DHT22;34804;49.214;12.276;2022-10-26T06:35:06;9.00;95.20
48994;DHT22;34804;49.214;12.276;2022-10-26T06:37:36;9.00;95.00
48994;DHT22;34804;49.214;12.276;2022-10-26T06:40:05;9.10;95.10
48994;DHT22;34804;49.214;12.276;2022-10-26T06:42:32;9.10;95.30
48994;DHT22;34804;49.214;12.276;2022-10-26T06:44:59;9.20;95.30
48994;DHT22;34804;49.214;12.276;2022-10-26T06:47:35;9.30;95.10
48994;DHT22;34804;49.214;12.276;2022-10-26T06:50:26;9.30;95.10
48994;DHT22;34804;49.214;12.276;2022-10-26T06:55:23;9.40;95.20
48994;DHT22;34804;49.214;12.276;2022-10-26T06:57:52;9.50;95.00
48994;DHT22;34804;49.214;12.276;2022-10-26T07:00:21;9.40;94.80
48994;DHT22;34804;49.214;12.276;2022-10-26T07:02:48;9.50;94.90
48994;DHT22;34804;49.214;12.276;2022-10-26T07:05:16;9.50;94.80
48994;DHT22;34804;49.214;12.276;2022-10-26T07:07:44;9.50;94.60
48994;DHT22;34804;49.214;12.276;2022-10-26T07:10:13;9.40;94.50
48994;DHT22;34804;49.214;12.276;2022-10-26T07:12:40;9.40;94.50
48994;DHT22;34804;49.214;12.276;2022-10-26T07:15:08;9.40;94.60
48994;DHT22;34804;49.214;12.276;2022-10-26T07:17:47;9.50;94.70
48994;DHT22;34804;49.214;12.276;2022-10-26T07:20:17;9.60;94.50
48994;DHT22;34804;49.214;12.276;2022-10-26T07:22:51;9.70;94.50
48994;DHT22;34804;49.214;12.276;2022-10-26T07:25:18;9.80;94.50
48994;DHT22;34804;49.214;12.276;2022-10-26T07:27:45;9.80;94.20
48994;DHT22;34804;49.214;12.276;2022-10-26T07:30:13;9.80;94.20
48994;DHT22;34804;49.214;12.276;2022-10-26T07:32:40;9.90;94.20
48994;DHT22;34804;49.214;12.276;2022-10-26T07:35:07;9.90;94.00
48994;DHT22;34804;49.214;12.276;2022-10-26T07:37:34;9.90;94.10
48994;DHT22;34804;49.214;12.276;2022-10-26T07:40:00;9.90;94.50
48994;DHT22;34804;49.214;12.276;2022-10-26T07:42:32;10.00;94.40
48994;DHT22;34804;49.214;12.276;2022-10-26T07:44:59;10.00;94.10
48994;DHT22;34804;49.214;12.276;2022-10-26T07:47:26;10.10;94.30
48994;DHT22;34804;49.214;12.276;2022-10-26T07:49:52;10.20;94.30
48994;DHT22;34804;49.214;12.276;2022-10-26T07:52:19;10.30;94.40
48994;DHT22;34804;49.214;12.276;2022-10-26T07:54:47;10.30;94.00
48994;DHT22;34804;49.214;12.276;2022-10-26T07:57:15;10.40;93.90
48994;DHT22;34804;49.214;12.276;2022-10-26T07:59:43;10.50;93.60
48994;DHT22;34804;49.214;12.276;2022-10-26T08:02:10;10.60;93.90
48994;DHT22;34804;49.214;12.276;2022-10-26T08:04:37;10.70;93.50
48994;DHT22;34804;49.214;12.276;2022-10-26T08:07:03;10.80;93.10
48994;DHT22;34804;49.214;12.276;2022-10-26T08:09:30;10.80;92.60
48994;DHT22;34804;49.214;12.276;2022-10-26T08:11:57;10.80;92.80
48994;DHT22;34804;49.214;12.276;2022-10-26T08:14:24;10.90;92.80
48994;DHT22;34804;49.214;12.276;2022-10-26T08:16:50;11.00;92.70
48994;DHT22;34804;49.214;12.276;2022-10-26T08:19:18;11.10;92.00
48994;DHT22;34804;49.214;12.276;2022-10-26T08:21:45;11.20;92.40
48994;DHT22;34804;49.214;12.276;2022-10-26T08:24:12;11.20;92.50
48994;DHT22;34804;49.214;12.276;2022-10-26T08:26:39;11.20;92.50
48994;DHT22;34804;49.214;12.276;2022-10-26T08:29:06;11.30;92.30
48994;DHT22;34804;49.214;12.276;2022-10-26T08:31:33;11.40;91.90
48994;DHT22;34804;49.214;12.276;2022-10-26T08:34:00;11.50;92.00
48994;DHT22;34804;49.214;12.276;2022-10-26T08:36:27;11.70;92.20
48994;DHT22;34804;49.214;12.276;2022-10-26T08:38:54;11.70;91.80
48994;DHT22;34804;49.214;12.276;2022-10-26T08:41:36;11.60;92.20
48994;DHT22;34804;49.214;12.276;2022-10-26T08:44:21;11.60;92.60
48994;DHT22;34804;49.214;12.276;2022-10-26T08:46:52;11.50;92.80
48994;DHT22;34804;49.214;12.276;2022-10-26T08:49:28;11.50;93.20
48994;DHT22;34804;49.214;12.276;2022-10-26T08:51:59;11.50;93.40
48994;DHT22;34804;49.214;12.276;2022-10-26T08:54:39;11.60;93.50
48994;DHT22;34804;49.214;12.276;2022-10-26T08:57:23;11.70;93.60
48994;DHT22;34804;49.214;12.276;2022-10-26T09:00:00;11.70;93.70
48994;DHT22;34804;49.214;12.276;2022-10-26T09:02:28;11.80;94.00
48994;DHT22;34804;49.214;12.276;2022-10-26T09:04:57;11.90;93.80
48994;DHT22;34804;49.214;12.276;2022-10-26T09:07:41;12.00;93.90
48994;DHT22;34804;49.214;12.276;2022-10-26T09:18:34;12.50;92.90
48994;DHT22;34804;49.214;12.276;2022-10-26T09:24:15;12.70;92.60
48994;DHT22;34804;49.214;12.276;2022-10-26T09:29:35;12.90;92.10
48994;DHT22;34804;49.214;12.276;2022-10-26T09:32:05;13.10;92.20
48994;DHT22;34804;49.214;12.276;2022-10-26T09:34:44;13.20;92.20
48994;DHT22;34804;49.214;12.276;2022-10-26T09:37:20;13.30;92.00
48994;DHT22;34804;49.214;12.276;2022-10-26T09:40:10;13.40;91.50
48994;DHT22;34804;49.214;12.276;2022-10-26T09:42:50;13.40;91.50
48994;DHT22;34804;49.214;12.276;2022-10-26T09:45:23;13.50;91.40
48994;DHT22;34804;49.214;12.276;2022-10-26T09:47:53;13.60;91.10
48994;DHT22;34804;49.214;12.276;2022-10-26T09:50:33;13.70;91.30
48994;DHT22;34804;49.214;12.276;2022-10-26T09:53:01;13.70;91.30
48994;DHT22;34804;49.214;12.276;2022-10-26T09:55:30;13.80;91.30
48994;DHT22;34804;49.214;12.276;2022-10-26T09:58:00;13.90;91.30
48994;DHT22;34804;49.214;12.276;2022-10-26T10:00:28;14.00;91.10
48994;DHT22;34804;49.214;12.276;2022-10-26T10:02:57;14.10;90.50
48994;DHT22;34804;49.214;12.276;2022-10-26T10:05:34;14.30;89.60
48994;DHT22;34804;49.214;12.276;2022-10-26T10:08:25;14.40;89.20
48994;DHT22;34804;49.214;12.276;2022-10-26T10:11:09;14.50;88.80
48994;DHT22;34804;49.214;12.276;2022-10-26T10:13:41;14.70;87.70
48994;DHT22;34804;49.214;12.276;2022-10-26T10:16:20;14.80;87.30
48994;DHT22;34804;49.214;12.276;2022-10-26T10:19:00;14.80;86.30
48994;DHT22;34804;49.214;12.276;2022-10-26T10:21:38;15.00;86.70
48994;DHT22;34804;49.214;12.276;2022-10-26T10:24:29;15.00;86.60
48994;DHT22;34804;49.214;12.276;2022-10-26T10:27:02;15.00;84.70
48994;DHT22;34804;49.214;12.276;2022-10-26T10:29:39;15.10;82.80
48994;DHT22;34804;49.214;12.276;2022-10-26T10:32:20;15.30;84.20
48994;DHT22;34804;49.214;12.276;2022-10-26T10:34:53;15.30;84.00
48994;DHT22;34804;49.214;12.276;2022-10-26T10:37:53;15.40;85.00
48994;DHT22;34804;49.214;12.276;2022-10-26T10:40:16;15.40;84.00
48994;DHT22;34804;49.214;12.276;2022-10-26T10:42:45;15.50;83.80
48994;DHT22;34804;49.214;12.276;2022-10-26T10:45:25;15.40;84.20
48994;DHT22;34804;49.214;12.276;2022-10-26T10:48:03;15.30;83.20
48994;DHT22;34804;49.214;12.276;2022-10-26T10:50:32;15.30;84.30
48994;DHT22;34804;49.214;12.276;2022-10-26T10:53:20;15.30;82.80
48994;DHT22;34804;49.214;12.276;2022-10-26T11:01:47;15.40;83.40
48994;DHT22;34804;49.214;12.276;2022-10-26T11:06:46;15.40;82.30
48994;DHT22;34804;49.214;12.276;2022-10-26T11:09:16;15.40;82.80
48994;DHT22;34804;49.214;12.276;2022-10-26T11:11:53;15.40;81.70
48994;DHT22;34804;49.214;12.276;2022-10-26T11:14:42;15.50;83.40
48994;DHT22;34804;49.214;12.276;2022-10-26T11:17:30;15.60;82.20
48994;DHT22;34804;49.214;12.276;2022-10-26T11:20:09;15.60;82.40
48994;DHT22;34804;49.214;12.276;2022-10-26T11:25:32;15.70;83.30
48994;DHT22;34804;49.214;12.276;2022-10-26T11:28:20;15.70;82.80
48994;DHT22;34804;49.214;12.276;2022-10-26T11:30:56;15.70;82.50
48994;DHT22;34804;49.214;12.276;2022-10-26T11:33:29;15.60;82.80
48994;DHT22;34804;49.214;12.276;2022-10-26T11:36:07;15.60;82.60
48994;DHT22;34804;49.214;12.276;2022-10-26T11:39:00;15.60;82.70
48994;DHT22;34804;49.214;12.276;2022-10-26T11:41:42;15.70;82.60
48994;DHT22;34804;49.214;12.276;2022-10-26T11:44:21;15.80;83.10
48994;DHT22;34804;49.214;12.276;2022-10-26T11:47:01;15.90;82.00
48994;DHT22;34804;49.214;12.276;2022-10-26T11:49:56;16.00;82.80
48994;DHT22;34804;49.214;12.276;2022-10-26T11:52:46;16.10;81.10
48994;DHT22;34804;49.214;12.276;2022-10-26T11:55:16;16.10;81.20
48994;DHT22;34804;49.214;12.276;2022-10-26T11:57:44;16.10;81.20
48994;DHT22;34804;49.214;12.276;2022-10-26T12:00:15;16.10;81.50
48994;DHT22;34804;49.214;12.276;2022-10-26T12:02:53;16.00;81.50
48994;DHT22;34804;49.214;12.276;2022-10-26T12:08:34;15.90;82.30
48994;DHT22;34804;49.214;12.276;2022-10-26T12:16:40;15.80;81.30
48994;DHT22;34804;49.214;12.276;2022-10-26T12:19:28;15.80;82.70
48994;DHT22;34804;49.214;12.276;2022-10-26T12:21:57;15.80;82.80
48994;DHT22;34804;49.214;12.276;2022-10-26T12:24:29;15.80;81.80
48994;DHT22;34804;49.214;12.276;2022-10-26T12:27:05;15.80;82.00
48994;DHT22;34804;49.214;12.276;2022-10-26T12:29:38;15.80;81.70
48994;DHT22;34804;49.214;12.276;2022-10-26T12:45:42;15.70;82.20
48994;DHT22;34804;49.214;12.276;2022-10-26T12:48:23;15.70;82.80
48994;DHT22;34804;49.214;12.276;2022-10-26T13:00:00;15.80;82.00
48994;DHT22;34804;49.214;12.276;2022-10-26T13:02:50;15.80;81.40
48994;DHT22;34804;49.214;12.276;2022-10-26T13:08:48;16.00;82.70
48994;DHT22;34804;49.214;12.276;2022-10-26T13:11:55;15.90;82.50
48994;DHT22;34804;49.214;12.276;2022-10-26T13:14:22;15.80;82.10
48994;DHT22;34804;49.214;12.276;2022-10-26T13:16:50;15.80;82.80
48994;DHT22;34804;49.214;12.276;2022-10-26T13:19:44;15.90;82.60
48994;DHT22;34804;49.214;12.276;2022-10-26T13:22:19;16.10;81.90
48994;DHT22;34804;49.214;12.276;2022-10-26T13:24:50;16.20;80.50
48994;DHT22;34804;49.214;12.276;2022-10-26T13:32:36;15.90;82.00
48994;DHT22;34804;49.214;12.276;2022-10-26T13:35:05;15.90;82.00
48994;DHT22;34804;49.214;12.276;2022-10-26T13:37:42;15.90;82.20
48994;DHT22;34804;49.214;12.276;2022-10-26T13:40:16;15.80;82.30
48994;DHT22;34804;49.214;12.276;2022-10-26T13:42:55;15.80;81.90
48994;DHT22;34804;49.214;12.276;2022-10-26T13:45:56;15.70;82.90
48994;DHT22;34804;49.214;12.276;2022-10-26T13:48:38;15.70;83.00
48994;DHT22;34804;49.214;12.276;2022-10-26T13:51:22;15.60;82.70
48994;DHT22;34804;49.214;12.276;2022-10-26T13:54:00;15.60;83.20
48994;DHT22;34804;49.214;12.276;2022-10-26T13:59:41;15.70;83.40
48994;DHT22;34804;49.214;12.276;2022-10-26T14:02:17;15.60;83.20
48994;DHT22;34804;49.214;12.276;2022-10-26T14:05:04;15.60;83.40
48994;DHT22;34804;49.214;12.276;2022-10-26T14:07:57;15.50;84.10
48994;DHT22;34804;49.214;12.276;2022-10-26T14:12:54;15.30;85.10
48994;DHT22;34804;49.214;12.276;2022-10-26T14:15:27;15.30;84.90
48994;DHT22;34804;49.214;12.276;2022-10-26T14:17:58;15.20;85.60
48994;DHT22;34804;49.214;12.276;2022-10-26T14:20:30;15.10;85.40
48994;DHT22;34804;49.214;12.276;2022-10-26T14:22:58;15.10;85.90
48994;DHT22;34804;49.214;12.276;2022-10-26T14:25:27;15.10;86.20
48994;DHT22;34804;49.214;12.276;2022-10-26T14:28:29;15.10;86.50
48994;DHT22;34804;49.214;12.276;2022-10-26T14:31:20;15.10;87.10
48994;DHT22;34804;49.214;12.276;2022-10-26T14:33:47;15.10;86.80
48994;DHT22;34804;49.214;12.276;2022-10-26T14:36:16;15.00;86.80
48994;DHT22;34804;49.214;12.276;2022-10-26T14:38:46;15.00;86.80
48994;DHT22;34804;49.214;12.276;2022-10-26T14:41:16;15.00;86.80
48994;DHT22;34804;49.214;12.276;2022-10-26T14:43:43;15.00;86.90
48994;DHT22;34804;49.214;12.276;2022-10-26T14:46:20;15.00;87.10
48994;DHT22;34804;49.214;12.276;2022-10-26T14:49:05;14.90;87.00
48994;DHT22;34804;49.214;12.276;2022-10-26T14:51:39;15.00;87.20
48994;DHT22;34804;49.214;12.276;2022-10-26T14:54:21;15.10;86.90
48994;DHT22;34804;49.214;12.276;2022-10-26T14:56:49;15.10;86.80
48994;DHT22;34804;49.214;12.276;2022-10-26T14:59:31;15.10;86.80
48994;DHT22;34804;49.214;12.276;2022-10-26T15:04:40;16.40;83.30
48994;DHT22;34804;49.214;12.276;2022-10-26T15:09:45;16.70;81.00
48994;DHT22;34804;49.214;12.276;2022-10-26T15:12:36;16.50;82.10
48994;DHT22;34804;49.214;12.276;2022-10-26T15:17:54;17.30;80.20
48994;DHT22;34804;49.214;12.276;2022-10-26T15:20:27;17.40;79.40
48994;DHT22;34804;49.214;12.276;2022-10-26T15:23:01;17.30;78.90
48994;DHT22;34804;49.214;12.276;2022-10-26T15:25:30;17.10;79.50
48994;DHT22;34804;49.214;12.276;2022-10-26T15:31:07;16.40;81.50
48994;DHT22;34804;49.214;12.276;2022-10-26T15:36:19;15.90;83.00
48994;DHT22;34804;49.214;12.276;2022-10-26T15:38:47;15.70;84.00
48994;DHT22;34804;49.214;12.276;2022-10-26T15:43:56;15.20;85.60
48994;DHT22;34804;49.214;12.276;2022-10-26T15:46:36;15.10;85.70
48994;DHT22;34804;49.214;12.276;2022-10-26T15:49:19;15.00;86.10
48994;DHT22;34804;49.214;12.276;2022-10-26T15:52:07;14.80;86.40
48994;DHT22;34804;49.214;12.276;2022-10-26T15:54:54;14.70;86.80
48994;DHT22;34804;49.214;12.276;2022-10-26T15:57:41;14.50;87.60
48994;DHT22;34804;49.214;12.276;2022-10-26T16:00:28;14.40;87.70
48994;DHT22;34804;49.214;12.276;2022-10-26T16:03:23;14.30;88.20
48994;DHT22;34804;49.214;12.276;2022-10-26T16:06:16;14.30;88.50
48994;DHT22;34804;49.214;12.276;2022-10-26T16:09:04;14.10;88.70
48994;DHT22;34804;49.214;12.276;2022-10-26T16:11:51;14.00;88.90
48994;DHT22;34804;49.214;12.276;2022-10-26T16:14:22;14.10;89.00
48994;DHT22;34804;49.214;12.276;2022-10-26T16:16:51;14.00;89.10
48994;DHT22;34804;49.214;12.276;2022-10-26T16:19:18;14.10;89.10
48994;DHT22;34804;49.214;12.276;2022-10-26T16:21:57;14.00;89.10
48994;DHT22;34804;49.214;12.276;2022-10-26T16:24:24;13.90;89.10
48994;DHT22;34804;49.214;12.276;2022-10-26T16:26:51;13.90;89.50
48994;DHT22;34804;49.214;12.276;2022-10-26T16:29:18;13.80;89.60
48994;DHT22;34804;49.214;12.276;2022-10-26T16:31:47;13.80;89.70
48994;DHT22;34804;49.214;12.276;2022-10-26T16:34:15;13.80;89.80
48994;DHT22;34804;49.214;12.276;2022-10-26T16:36:43;13.80;89.90
48994;DHT22;34804;49.214;12.276;2022-10-26T16:39:11;13.80;90.10
48994;DHT22;34804;49.214;12.276;2022-10-26T16:41:40;13.70;90.10
48994;DHT22;34804;49.214;12.276;2022-10-26T16:44:26;13.70;90.30
48994;DHT22;34804;49.214;12.276;2022-10-26T16:46:55;13.70;90.50
48994;DHT22;34804;49.214;12.276;2022-10-26T16:49:24;13.70;90.50
48994;DHT22;34804;49.214;12.276;2022-10-26T16:51:54;13.70;90.30
48994;DHT22;34804;49.214;12.276;2022-10-26T16:54:29;13.80;90.30
48994;DHT22;34804;49.214;12.276;2022-10-26T16:57:07;13.70;90.30
48994;DHT22;34804;49.214;12.276;2022-10-26T16:59:35;13.70;90.40
48994;DHT22;34804;49.214;12.276;2022-10-26T17:02:02;13.60;90.50
48994;DHT22;34804;49.214;12.276;2022-10-26T17:04:30;13.60;90.70
48994;DHT22;34804;49.214;12.276;2022-10-26T17:06:56;13.60;90.80
48994;DHT22;34804;49.214;12.276;2022-10-26T17:09:23;13.50;90.90
48994;DHT22;34804;49.214;12.276;2022-10-26T17:11:50;13.60;91.30
48994;DHT22;34804;49.214;12.276;2022-10-26T17:14:17;13.60;91.30
48994;DHT22;34804;49.214;12.276;2022-10-26T17:16:44;13.60;91.20
48994;DHT22;34804;49.214;12.276;2022-10-26T17:19:11;13.60;91.10
48994;DHT22;34804;49.214;12.276;2022-10-26T17:21:38;13.60;91.10
48994;DHT22;34804;49.214;12.276;2022-10-26T17:24:05;13.60;91.10
48994;DHT22;34804;49.214;12.276;2022-10-26T17:26:32;13.70;91.00
48994;DHT22;34804;49.214;12.276;2022-10-26T17:28:59;13.70;91.00
48994;DHT22;34804;49.214;12.276;2022-10-26T17:31:26;13.70;90.90
48994;DHT22;34804;49.214;12.276;2022-10-26T17:33:54;13.70;90.80
48994;DHT22;34804;49.214;12.276;2022-10-26T17:36:22;13.60;90.80
48994;DHT22;34804;49.214;12.276;2022-10-26T17:38:52;13.60;91.00
48994;DHT22;34804;49.214;12.276;2022-10-26T17:41:21;13.50;91.20
48994;DHT22;34804;49.214;12.276;2022-10-26T17:43:48;13.40;91.30
48994;DHT22;34804;49.214;12.276;2022-10-26T17:46:21;13.40;91.60
48994;DHT22;34804;49.214;12.276;2022-10-26T17:48:54;13.40;91.70
48994;DHT22;34804;49.214;12.276;2022-10-26T17:51:22;13.40;91.70
48994;DHT22;34804;49.214;12.276;2022-10-26T17:53:49;13.40;91.90
48994;DHT22;34804;49.214;12.276;2022-10-26T17:56:18;13.40;92.00
48994;DHT22;34804;49.214;12.276;2022-10-26T17:58:53;13.30;91.90
48994;DHT22;34804;49.214;12.276;2022-10-26T18:01:21;13.30;92.10
48994;DHT22;34804;49.214;12.276;2022-10-26T18:03:49;13.20;92.20
48994;DHT22;34804;49.214;12.276;2022-10-26T18:06:16;13.20;92.40
48994;DHT22;34804;49.214;12.276;2022-10-26T18:08:46;13.20;92.70
48994;DHT22;34804;49.214;12.276;2022-10-26T18:11:16;13.10;92.70
48994;DHT22;34804;49.214;12.276;2022-10-26T18:13:53;13.10;92.70